sensor_id;sensor_type;location;lat;lon;timestamp;pressure;altitude;pressure_sealevel;temperature;humidity
40946;BME280;55635;50.264;11.918;2023-07-31T00:00:25;95515.38;;;16.23;69.15
40946;BME280;55635;50.264;11.918;2023-07-31T00:03:06;95521.38;;;16.37;68.78
40946;BME280;55635;50.264;11.918;2023-07-31T00:05:47;95514.59;;;16.53;68.06
40946;BME280;55635;50.264;11.918;2023-07-31T00:08:28;95522.59;;;16.59;68.15
40946;BME280;55635;50.264;11.918;2023-07-31T00:11:09;95520.94;;;16.40;68.88
40946;BME280;55635;50.264;11.918;2023-07-31T00:13:53;95516.91;;;16.49;68.63
40946;BME280;55635;50.264;11.918;2023-07-31T00:16:34;95524.63;;;16.39;69.05
40946;BME280;55635;50.264;11.918;2023-07-31T00:19:15;95526.72;;;16.19;69.70
40946;BME280;55635;50.264;11.918;2023-07-31T00:21:56;95524.81;;;16.26;69.92
40946;BME280;55635;50.264;11.918;2023-07-31T00:24:37;95533.78;;;16.31;69.62
40946;BME280;55635;50.264;11.918;2023-07-31T00:27:18;95530.44;;;16.36;69.48
40946;BME280;55635;50.264;11.918;2023-07-31T00:29:59;95528.81;;;16.35;69.29
40946;BME280;55635;50.264;11.918;2023-07-31T00:32:40;95522.09;;;16.08;69.69
40946;BME280;55635;50.264;11.918;2023-07-31T00:35:21;95514.91;;;16.08;70.49
40946;BME280;55635;50.264;11.918;2023-07-31T00:38:02;95516.59;;;16.21;69.91
40946;BME280;55635;50.264;11.918;2023-07-31T00:40:43;95509.47;;;16.15;69.69
40946;BME280;55635;50.264;11.918;2023-07-31T00:43:25;95509.84;;;16.18;70.39
40946;BME280;55635;50.264;11.918;2023-07-31T00:46:06;95504.72;;;16.17;70.53
40946;BME280;55635;50.264;11.918;2023-07-31T00:48:48;95507.78;;;16.39;70.14
40946;BME280;55635;50.264;11.918;2023-07-31T00:51:30;95505.25;;;16.07;70.34
40946;BME280;55635;50.264;11.918;2023-07-31T00:54:11;95504.41;;;15.89;71.83
40946;BME280;55635;50.264;11.918;2023-07-31T00:56:57;95511.03;;;16.04;71.83
40946;BME280;55635;50.264;11.918;2023-07-31T00:59:38;95506.03;;;15.90;72.09
40946;BME280;55635;50.264;11.918;2023-07-31T01:02:19;95502.25;;;15.97;71.85
40946;BME280;55635;50.264;11.918;2023-07-31T01:05:01;95504.16;;;15.90;71.11
40946;BME280;55635;50.264;11.918;2023-07-31T01:08:07;95508.28;;;15.93;72.03
40946;BME280;55635;50.264;11.918;2023-07-31T01:10:59;95512.84;;;15.86;72.24
40946;BME280;55635;50.264;11.918;2023-07-31T01:13:42;95510.34;;;16.09;71.61
40946;BME280;55635;50.264;11.918;2023-07-31T01:16:25;95511.69;;;16.18;71.67
40946;BME280;55635;50.264;11.918;2023-07-31T01:19:07;95500.13;;;15.81;72.68
40946;BME280;55635;50.264;11.918;2023-07-31T01:28:07;95501.66;;;15.95;72.75
40946;BME280;55635;50.264;11.918;2023-07-31T01:30:50;95503.63;;;15.82;72.87
40946;BME280;55635;50.264;11.918;2023-07-31T01:33:31;95500.56;;;15.78;73.42
40946;BME280;55635;50.264;11.918;2023-07-31T01:36:12;95503.75;;;16.11;72.55
40946;BME280;55635;50.264;11.918;2023-07-31T01:39:02;95496.06;;;15.97;72.40
40946;BME280;55635;50.264;11.918;2023-07-31T01:41:43;95501.28;;;15.92;72.48
40946;BME280;55635;50.264;11.918;2023-07-31T01:44:24;95500.28;;;16.11;72.36
40946;BME280;55635;50.264;11.918;2023-07-31T01:47:05;95511.34;;;16.32;72.05
40946;BME280;55635;50.264;11.918;2023-07-31T01:49:47;95509.69;;;16.13;72.42
40946;BME280;55635;50.264;11.918;2023-07-31T01:52:28;95509.91;;;16.12;72.67
40946;BME280;55635;50.264;11.918;2023-07-31T01:55:10;95510.97;;;16.47;72.06
40946;BME280;55635;50.264;11.918;2023-07-31T01:57:51;95494.59;;;16.37;71.59
40946;BME280;55635;50.264;11.918;2023-07-31T02:00:33;95481.81;;;16.21;72.04
40946;BME280;55635;50.264;11.918;2023-07-31T02:03:14;95488.50;;;16.30;72.25
40946;BME280;55635;50.264;11.918;2023-07-31T02:05:55;95478.56;;;16.37;72.61
40946;BME280;55635;50.264;11.918;2023-07-31T02:08:39;95480.91;;;16.45;72.06
40946;BME280;55635;50.264;11.918;2023-07-31T02:11:20;95470.91;;;16.41;73.20
40946;BME280;55635;50.264;11.918;2023-07-31T02:14:04;95466.47;;;16.16;74.38
40946;BME280;55635;50.264;11.918;2023-07-31T02:16:45;95478.03;;;16.28;74.01
40946;BME280;55635;50.264;11.918;2023-07-31T02:19:26;95474.41;;;16.41;73.64
40946;BME280;55635;50.264;11.918;2023-07-31T02:22:07;95470.38;;;16.32;74.10
40946;BME280;55635;50.264;11.918;2023-07-31T02:24:48;95473.06;;;15.96;75.79
40946;BME280;55635;50.264;11.918;2023-07-31T02:27:29;95474.34;;;16.29;74.72
40946;BME280;55635;50.264;11.918;2023-07-31T02:30:11;95472.25;;;16.31;74.72
40946;BME280;55635;50.264;11.918;2023-07-31T02:32:52;95470.31;;;16.02;76.58
40946;BME280;55635;50.264;11.918;2023-07-31T02:35:33;95463.19;;;16.14;76.99
40946;BME280;55635;50.264;11.918;2023-07-31T02:38:14;95464.34;;;15.82;77.91
40946;BME280;55635;50.264;11.918;2023-07-31T02:40:56;95463.66;;;16.11;77.18
40946;BME280;55635;50.264;11.918;2023-07-31T02:43:37;95473.06;;;16.14;77.82
40946;BME280;55635;50.264;11.918;2023-07-31T02:46:19;95449.38;;;16.17;77.16
40946;BME280;55635;50.264;11.918;2023-07-31T02:49:00;95455.69;;;16.05;78.36
40946;BME280;55635;50.264;11.918;2023-07-31T02:51:41;95466.38;;;16.23;77.87
40946;BME280;55635;50.264;11.918;2023-07-31T02:54:22;95457.84;;;16.32;78.06
40946;BME280;55635;50.264;11.918;2023-07-31T02:57:03;95441.78;;;16.14;78.57
40946;BME280;55635;50.264;11.918;2023-07-31T02:59:44;95453.28;;;15.78;80.57
40946;BME280;55635;50.264;11.918;2023-07-31T03:02:25;95454.34;;;16.14;79.04
40946;BME280;55635;50.264;11.918;2023-07-31T03:05:07;95449.06;;;16.25;78.80
40946;BME280;55635;50.264;11.918;2023-07-31T03:07:48;95450.84;;;16.31;77.96
40946;BME280;55635;50.264;11.918;2023-07-31T03:10:29;95447.81;;;16.10;78.84
40946;BME280;55635;50.264;11.918;2023-07-31T03:13:09;95445.44;;;16.20;78.65
40946;BME280;55635;50.264;11.918;2023-07-31T03:15:50;95447.22;;;16.26;78.35
40946;BME280;55635;50.264;11.918;2023-07-31T03:18:32;95447.13;;;16.32;77.91
40946;BME280;55635;50.264;11.918;2023-07-31T03:21:14;95448.47;;;16.42;77.75
40946;BME280;55635;50.264;11.918;2023-07-31T03:23:55;95452.09;;;16.47;77.98
40946;BME280;55635;50.264;11.918;2023-07-31T03:26:36;95450.69;;;16.26;78.96
40946;BME280;55635;50.264;11.918;2023-07-31T03:29:17;95450.53;;;16.40;78.20
40946;BME280;55635;50.264;11.918;2023-07-31T03:31:58;95451.50;;;16.09;79.11
40946;BME280;55635;50.264;11.918;2023-07-31T03:34:39;95454.41;;;16.25;79.03
40946;BME280;55635;50.264;11.918;2023-07-31T03:37:21;95447.88;;;16.03;80.14
40946;BME280;55635;50.264;11.918;2023-07-31T03:40:02;95455.81;;;16.10;80.25
40946;BME280;55635;50.264;11.918;2023-07-31T03:42:45;95458.78;;;16.38;80.24
40946;BME280;55635;50.264;11.918;2023-07-31T03:45:26;95452.41;;;16.03;82.40
40946;BME280;55635;50.264;11.918;2023-07-31T03:48:08;95445.56;;;16.07;82.75
40946;BME280;55635;50.264;11.918;2023-07-31T03:50:49;95444.16;;;15.86;84.36
40946;BME280;55635;50.264;11.918;2023-07-31T03:53:31;95451.22;;;15.99;84.54
40946;BME280;55635;50.264;11.918;2023-07-31T03:56:12;95444.09;;;15.93;85.67
40946;BME280;55635;50.264;11.918;2023-07-31T03:58:52;95456.78;;;15.79;86.58
40946;BME280;55635;50.264;11.918;2023-07-31T04:01:33;95445.56;;;15.70;87.05
40946;BME280;55635;50.264;11.918;2023-07-31T04:04:14;95439.78;;;16.10;85.87
40946;BME280;55635;50.264;11.918;2023-07-31T04:06:55;95439.47;;;16.00;86.46
40946;BME280;55635;50.264;11.918;2023-07-31T04:09:36;95425.44;;;15.86;87.06
40946;BME280;55635;50.264;11.918;2023-07-31T04:12:17;95410.50;;;15.78;87.61
40946;BME280;55635;50.264;11.918;2023-07-31T04:14:58;95422.25;;;15.96;87.83
40946;BME280;55635;50.264;11.918;2023-07-31T04:17:39;95423.66;;;15.80;86.63
40946;BME280;55635;50.264;11.918;2023-07-31T04:20:19;95423.88;;;15.78;86.48
40946;BME280;55635;50.264;11.918;2023-07-31T04:23:01;95417.50;;;15.98;85.80
40946;BME280;55635;50.264;11.918;2023-07-31T04:25:42;95417.78;;;16.08;86.01
40946;BME280;55635;50.264;11.918;2023-07-31T04:28:22;95408.06;;;16.13;83.54
40946;BME280;55635;50.264;11.918;2023-07-31T04:31:04;95404.66;;;16.36;82.84
40946;BME280;55635;50.264;11.918;2023-07-31T04:33:45;95405.84;;;16.58;81.60
40946;BME280;55635;50.264;11.918;2023-07-31T04:36:25;95410.75;;;16.43;80.75
40946;BME280;55635;50.264;11.918;2023-07-31T04:39:06;95406.34;;;16.49;80.32
40946;BME280;55635;50.264;11.918;2023-07-31T04:41:47;95410.16;;;16.41;80.64
40946;BME280;55635;50.264;11.918;2023-07-31T04:44:28;95411.28;;;16.33;79.88
40946;BME280;55635;50.264;11.918;2023-07-31T04:47:10;95409.47;;;16.64;78.86
40946;BME280;55635;50.264;11.918;2023-07-31T04:49:50;95404.72;;;16.48;78.98
40946;BME280;55635;50.264;11.918;2023-07-31T04:52:31;95405.19;;;16.45;79.15
40946;BME280;55635;50.264;11.918;2023-07-31T04:55:12;95405.38;;;16.61;78.11
40946;BME280;55635;50.264;11.918;2023-07-31T04:57:54;95410.88;;;16.48;78.29
40946;BME280;55635;50.264;11.918;2023-07-31T05:00:35;95405.00;;;16.58;77.83
40946;BME280;55635;50.264;11.918;2023-07-31T05:03:16;95402.78;;;16.84;77.62
40946;BME280;55635;50.264;11.918;2023-07-31T05:05:56;95405.94;;;16.81;76.73
40946;BME280;55635;50.264;11.918;2023-07-31T05:08:37;95390.25;;;16.67;76.93
40946;BME280;55635;50.264;11.918;2023-07-31T05:11:18;95390.72;;;16.64;77.50
40946;BME280;55635;50.264;11.918;2023-07-31T05:13:59;95394.69;;;16.73;77.49
40946;BME280;55635;50.264;11.918;2023-07-31T05:16:40;95393.59;;;16.92;76.64
40946;BME280;55635;50.264;11.918;2023-07-31T05:19:21;95368.28;;;16.76;75.50
40946;BME280;55635;50.264;11.918;2023-07-31T05:22:02;95392.84;;;17.15;74.73
40946;BME280;55635;50.264;11.918;2023-07-31T05:24:43;95390.63;;;16.70;75.51
40946;BME280;55635;50.264;11.918;2023-07-31T05:27:24;95387.34;;;17.10;74.65
40946;BME280;55635;50.264;11.918;2023-07-31T05:30:06;95391.75;;;16.93;75.91
40946;BME280;55635;50.264;11.918;2023-07-31T05:32:47;95391.56;;;17.29;74.55
40946;BME280;55635;50.264;11.918;2023-07-31T05:35:27;95390.25;;;17.20;73.99
40946;BME280;55635;50.264;11.918;2023-07-31T05:38:08;95387.41;;;16.80;74.74
40946;BME280;55635;50.264;11.918;2023-07-31T05:40:49;95392.22;;;17.01;75.23
40946;BME280;55635;50.264;11.918;2023-07-31T05:43:30;95400.81;;;16.92;74.72
40946;BME280;55635;50.264;11.918;2023-07-31T05:46:11;95377.53;;;17.04;74.82
40946;BME280;55635;50.264;11.918;2023-07-31T05:48:52;95376.50;;;17.05;75.30
40946;BME280;55635;50.264;11.918;2023-07-31T05:51:33;95370.94;;;17.06;75.06
40946;BME280;55635;50.264;11.918;2023-07-31T05:54:14;95382.13;;;16.73;75.61
40946;BME280;55635;50.264;11.918;2023-07-31T05:56:55;95375.69;;;17.16;74.36
40946;BME280;55635;50.264;11.918;2023-07-31T05:59:36;95385.84;;;17.14;73.85
40946;BME280;55635;50.264;11.918;2023-07-31T06:02:17;95379.78;;;17.18;73.76
40946;BME280;55635;50.264;11.918;2023-07-31T06:04:57;95390.16;;;17.38;73.43
40946;BME280;55635;50.264;11.918;2023-07-31T06:07:38;95385.16;;;17.30;73.64
40946;BME280;55635;50.264;11.918;2023-07-31T06:10:19;95380.16;;;17.33;73.49
40946;BME280;55635;50.264;11.918;2023-07-31T06:13:00;95376.28;;;17.41;72.91
40946;BME280;55635;50.264;11.918;2023-07-31T06:15:41;95370.13;;;17.29;73.41
40946;BME280;55635;50.264;11.918;2023-07-31T06:18:22;95349.13;;;17.37;73.58
40946;BME280;55635;50.264;11.918;2023-07-31T06:21:03;95366.63;;;17.28;74.24
40946;BME280;55635;50.264;11.918;2023-07-31T06:23:44;95359.97;;;17.54;73.23
40946;BME280;55635;50.264;11.918;2023-07-31T06:26:25;95354.97;;;17.23;74.75
40946;BME280;55635;50.264;11.918;2023-07-31T06:29:05;95365.69;;;17.81;72.66
40946;BME280;55635;50.264;11.918;2023-07-31T06:31:46;95367.94;;;17.61;71.91
40946;BME280;55635;50.264;11.918;2023-07-31T06:34:27;95365.34;;;17.54;72.37
40946;BME280;55635;50.264;11.918;2023-07-31T06:37:08;95357.84;;;17.91;71.41
40946;BME280;55635;50.264;11.918;2023-07-31T06:39:49;95372.09;;;17.68;72.04
40946;BME280;55635;50.264;11.918;2023-07-31T06:42:30;95380.81;;;17.99;71.33
40946;BME280;55635;50.264;11.918;2023-07-31T06:45:11;95372.00;;;17.63;71.77
40946;BME280;55635;50.264;11.918;2023-07-31T06:47:52;95364.63;;;17.47;73.53
40946;BME280;55635;50.264;11.918;2023-07-31T06:50:33;95351.59;;;17.62;72.56
40946;BME280;55635;50.264;11.918;2023-07-31T06:53:14;95370.09;;;17.52;73.71
40946;BME280;55635;50.264;11.918;2023-07-31T06:55:55;95374.31;;;17.71;73.24
40946;BME280;55635;50.264;11.918;2023-07-31T06:58:36;95381.44;;;17.42;72.86
40946;BME280;55635;50.264;11.918;2023-07-31T07:01:17;95364.53;;;17.65;73.37
40946;BME280;55635;50.264;11.918;2023-07-31T07:03:58;95372.19;;;17.97;72.99
40946;BME280;55635;50.264;11.918;2023-07-31T07:06:41;95373.13;;;17.90;73.66
40946;BME280;55635;50.264;11.918;2023-07-31T07:09:23;95371.41;;;17.73;72.98
40946;BME280;55635;50.264;11.918;2023-07-31T07:12:04;95384.75;;;18.08;72.23
40946;BME280;55635;50.264;11.918;2023-07-31T07:14:45;95376.81;;;18.13;71.88
40946;BME280;55635;50.264;11.918;2023-07-31T07:17:30;95381.75;;;18.32;71.78
40946;BME280;55635;50.264;11.918;2023-07-31T07:20:14;95374.34;;;18.79;69.45
40946;BME280;55635;50.264;11.918;2023-07-31T07:22:54;95375.09;;;18.35;69.41
40946;BME280;55635;50.264;11.918;2023-07-31T07:25:38;95380.88;;;18.15;70.54
40946;BME280;55635;50.264;11.918;2023-07-31T07:28:18;95378.03;;;18.33;70.73
40946;BME280;55635;50.264;11.918;2023-07-31T07:30:59;95385.25;;;17.93;71.25
40946;BME280;55635;50.264;11.918;2023-07-31T07:33:40;95385.56;;;18.48;71.57
40946;BME280;55635;50.264;11.918;2023-07-31T07:36:21;95367.72;;;18.42;70.80
40946;BME280;55635;50.264;11.918;2023-07-31T07:39:02;95383.31;;;18.28;72.09
40946;BME280;55635;50.264;11.918;2023-07-31T07:41:43;95384.63;;;18.54;69.03
40946;BME280;55635;50.264;11.918;2023-07-31T07:44:24;95386.69;;;18.24;70.92
40946;BME280;55635;50.264;11.918;2023-07-31T07:47:05;95389.16;;;18.14;72.27
40946;BME280;55635;50.264;11.918;2023-07-31T07:49:48;95392.34;;;17.99;72.15
40946;BME280;55635;50.264;11.918;2023-07-31T07:52:29;95404.47;;;18.41;71.34
40946;BME280;55635;50.264;11.918;2023-07-31T07:55:10;95397.25;;;18.42;71.25
40946;BME280;55635;50.264;11.918;2023-07-31T07:57:51;95397.00;;;18.55;70.49
40946;BME280;55635;50.264;11.918;2023-07-31T08:00:32;95393.25;;;18.56;70.30
40946;BME280;55635;50.264;11.918;2023-07-31T08:03:13;95394.91;;;18.45;70.23
40946;BME280;55635;50.264;11.918;2023-07-31T08:06:01;95398.72;;;18.21;71.91
40946;BME280;55635;50.264;11.918;2023-07-31T08:08:42;95398.63;;;18.44;71.50
40946;BME280;55635;50.264;11.918;2023-07-31T08:11:23;95392.31;;;18.62;69.46
40946;BME280;55635;50.264;11.918;2023-07-31T08:14:04;95388.34;;;18.53;70.09
40946;BME280;55635;50.264;11.918;2023-07-31T08:16:45;95386.19;;;19.12;68.71
40946;BME280;55635;50.264;11.918;2023-07-31T08:19:26;95387.88;;;18.84;68.55
40946;BME280;55635;50.264;11.918;2023-07-31T08:22:07;95389.19;;;18.54;69.64
40946;BME280;55635;50.264;11.918;2023-07-31T08:24:48;95388.47;;;19.03;69.42
40946;BME280;55635;50.264;11.918;2023-07-31T08:27:29;95374.56;;;19.56;67.85
40946;BME280;55635;50.264;11.918;2023-07-31T08:30:11;95373.56;;;18.95;68.69
40946;BME280;55635;50.264;11.918;2023-07-31T08:32:52;95383.56;;;18.83;70.44
40946;BME280;55635;50.264;11.918;2023-07-31T08:35:33;95373.66;;;19.17;67.97
40946;BME280;55635;50.264;11.918;2023-07-31T08:38:14;95366.38;;;19.18;67.22
40946;BME280;55635;50.264;11.918;2023-07-31T08:40:57;95366.63;;;18.83;69.64
40946;BME280;55635;50.264;11.918;2023-07-31T08:43:38;95356.53;;;19.07;68.89
40946;BME280;55635;50.264;11.918;2023-07-31T08:46:20;95361.91;;;19.07;67.50
40946;BME280;55635;50.264;11.918;2023-07-31T08:49:04;95362.50;;;19.42;67.38
40946;BME280;55635;50.264;11.918;2023-07-31T08:51:50;95350.16;;;18.79;69.00
40946;BME280;55635;50.264;11.918;2023-07-31T08:54:32;95362.44;;;18.59;69.64
40946;BME280;55635;50.264;11.918;2023-07-31T08:57:14;95352.28;;;18.94;69.42
40946;BME280;55635;50.264;11.918;2023-07-31T08:59:56;95358.22;;;18.96;67.97
40946;BME280;55635;50.264;11.918;2023-07-31T09:02:48;95349.03;;;19.42;68.00
40946;BME280;55635;50.264;11.918;2023-07-31T09:05:32;95348.09;;;20.30;64.10
40946;BME280;55635;50.264;11.918;2023-07-31T09:08:15;95342.66;;;19.65;65.97
40946;BME280;55635;50.264;11.918;2023-07-31T09:11:02;95354.91;;;19.55;67.22
40946;BME280;55635;50.264;11.918;2023-07-31T09:13:46;95343.88;;;19.95;64.56
40946;BME280;55635;50.264;11.918;2023-07-31T09:16:29;95349.53;;;20.64;64.09
40946;BME280;55635;50.264;11.918;2023-07-31T09:19:13;95337.66;;;20.92;64.64
40946;BME280;55635;50.264;11.918;2023-07-31T09:21:54;95342.94;;;20.50;63.45
40946;BME280;55635;50.264;11.918;2023-07-31T09:24:35;95329.22;;;20.78;63.62
40946;BME280;55635;50.264;11.918;2023-07-31T09:27:16;95323.59;;;20.85;61.73
40946;BME280;55635;50.264;11.918;2023-07-31T09:30:00;95316.34;;;20.85;61.60
40946;BME280;55635;50.264;11.918;2023-07-31T09:32:43;95314.47;;;21.17;61.18
40946;BME280;55635;50.264;11.918;2023-07-31T09:35:33;95308.66;;;21.36;61.42
40946;BME280;55635;50.264;11.918;2023-07-31T09:38:15;95310.88;;;21.91;59.17
40946;BME280;55635;50.264;11.918;2023-07-31T09:40:58;95315.34;;;22.22;59.40
40946;BME280;55635;50.264;11.918;2023-07-31T09:43:40;95308.09;;;22.38;56.92
40946;BME280;55635;50.264;11.918;2023-07-31T09:46:21;95303.63;;;22.99;57.01
40946;BME280;55635;50.264;11.918;2023-07-31T09:49:13;95310.31;;;22.61;58.27
40946;BME280;55635;50.264;11.918;2023-07-31T09:51:54;95308.13;;;22.63;59.07
40946;BME280;55635;50.264;11.918;2023-07-31T09:54:35;95312.59;;;22.07;58.02
40946;BME280;55635;50.264;11.918;2023-07-31T09:57:17;95300.63;;;22.70;57.03
40946;BME280;55635;50.264;11.918;2023-07-31T09:59:59;95298.78;;;21.98;58.05
40946;BME280;55635;50.264;11.918;2023-07-31T10:02:40;95295.63;;;21.64;59.93
40946;BME280;55635;50.264;11.918;2023-07-31T10:05:22;95292.13;;;21.69;59.69
40946;BME280;55635;50.264;11.918;2023-07-31T10:08:03;95292.28;;;21.99;59.18
40946;BME280;55635;50.264;11.918;2023-07-31T10:10:46;95293.41;;;21.56;59.08
40946;BME280;55635;50.264;11.918;2023-07-31T10:13:28;95295.84;;;21.16;61.42
40946;BME280;55635;50.264;11.918;2023-07-31T10:16:10;95280.09;;;21.03;60.49
40946;BME280;55635;50.264;11.918;2023-07-31T10:18:53;95283.66;;;21.08;61.46
40946;BME280;55635;50.264;11.918;2023-07-31T10:21:35;95288.31;;;21.60;61.08
40946;BME280;55635;50.264;11.918;2023-07-31T10:24:18;95274.38;;;21.31;61.29
40946;BME280;55635;50.264;11.918;2023-07-31T10:27:00;95282.53;;;20.46;63.72
40946;BME280;55635;50.264;11.918;2023-07-31T10:29:44;95278.63;;;20.90;64.63
40946;BME280;55635;50.264;11.918;2023-07-31T10:32:28;95272.00;;;20.39;64.67
40946;BME280;55635;50.264;11.918;2023-07-31T10:35:09;95274.38;;;20.36;64.80
40946;BME280;55635;50.264;11.918;2023-07-31T10:37:52;95268.63;;;20.54;64.75
40946;BME280;55635;50.264;11.918;2023-07-31T10:40:33;95267.47;;;20.45;65.53
40946;BME280;55635;50.264;11.918;2023-07-31T10:43:25;95269.97;;;20.51;64.46
40946;BME280;55635;50.264;11.918;2023-07-31T10:46:14;95273.81;;;20.60;64.16
40946;BME280;55635;50.264;11.918;2023-07-31T10:49:01;95259.75;;;20.85;64.17
40946;BME280;55635;50.264;11.918;2023-07-31T10:51:42;95270.59;;;20.63;64.26
40946;BME280;55635;50.264;11.918;2023-07-31T10:54:23;95259.84;;;21.00;63.88
40946;BME280;55635;50.264;11.918;2023-07-31T10:57:21;95255.22;;;21.28;62.19
40946;BME280;55635;50.264;11.918;2023-07-31T11:00:19;95257.09;;;21.79;60.67
40946;BME280;55635;50.264;11.918;2023-07-31T11:03:02;95242.13;;;21.56;61.36
40946;BME280;55635;50.264;11.918;2023-07-31T11:05:48;95241.38;;;20.82;61.83
40946;BME280;55635;50.264;11.918;2023-07-31T11:08:34;95226.03;;;21.77;59.77
40946;BME280;55635;50.264;11.918;2023-07-31T11:11:20;95235.38;;;21.49;59.34
40946;BME280;55635;50.264;11.918;2023-07-31T11:14:01;95231.69;;;21.70;59.21
40946;BME280;55635;50.264;11.918;2023-07-31T11:16:42;95234.09;;;21.14;61.22
40946;BME280;55635;50.264;11.918;2023-07-31T11:19:24;95234.91;;;21.67;59.78
40946;BME280;55635;50.264;11.918;2023-07-31T11:22:05;95227.41;;;21.84;58.61
40946;BME280;55635;50.264;11.918;2023-07-31T11:24:47;95234.50;;;21.95;58.68
40946;BME280;55635;50.264;11.918;2023-07-31T11:27:28;95223.97;;;21.37;58.58
40946;BME280;55635;50.264;11.918;2023-07-31T11:30:10;95230.19;;;21.37;60.06
40946;BME280;55635;50.264;11.918;2023-07-31T11:32:51;95218.03;;;21.92;58.94
40946;BME280;55635;50.264;11.918;2023-07-31T11:35:35;95232.09;;;21.47;59.60
40946;BME280;55635;50.264;11.918;2023-07-31T11:38:33;95224.63;;;21.12;60.77
40946;BME280;55635;50.264;11.918;2023-07-31T11:41:16;95225.03;;;20.62;61.75
40946;BME280;55635;50.264;11.918;2023-07-31T11:44:00;95218.16;;;20.44;61.95
40946;BME280;55635;50.264;11.918;2023-07-31T11:46:42;95233.66;;;20.64;62.09
40946;BME280;55635;50.264;11.918;2023-07-31T11:49:23;95227.34;;;21.17;62.28
40946;BME280;55635;50.264;11.918;2023-07-31T11:52:04;95225.91;;;21.46;60.85
40946;BME280;55635;50.264;11.918;2023-07-31T11:54:46;95220.25;;;22.15;60.26
40946;BME280;55635;50.264;11.918;2023-07-31T11:57:28;95212.50;;;22.74;58.97
40946;BME280;55635;50.264;11.918;2023-07-31T12:00:10;95206.56;;;22.77;56.74
40946;BME280;55635;50.264;11.918;2023-07-31T12:02:54;95214.91;;;21.58;59.12
40946;BME280;55635;50.264;11.918;2023-07-31T12:05:35;95203.06;;;21.69;59.86
40946;BME280;55635;50.264;11.918;2023-07-31T12:08:17;95217.28;;;21.07;61.16
40946;BME280;55635;50.264;11.918;2023-07-31T12:11:09;95202.34;;;21.27;61.42
40946;BME280;55635;50.264;11.918;2023-07-31T12:13:50;95201.00;;;21.96;59.78
40946;BME280;55635;50.264;11.918;2023-07-31T12:16:32;95198.81;;;21.83;59.89
40946;BME280;55635;50.264;11.918;2023-07-31T12:19:13;95200.41;;;21.84;60.45
40946;BME280;55635;50.264;11.918;2023-07-31T12:21:58;95188.72;;;21.58;60.27
40946;BME280;55635;50.264;11.918;2023-07-31T12:24:44;95194.66;;;21.60;60.98
40946;BME280;55635;50.264;11.918;2023-07-31T12:27:33;95196.22;;;21.04;61.66
40946;BME280;55635;50.264;11.918;2023-07-31T12:30:33;95188.69;;;21.48;61.82
40946;BME280;55635;50.264;11.918;2023-07-31T12:33:19;95193.91;;;21.70;61.56
40946;BME280;55635;50.264;11.918;2023-07-31T12:36:03;95189.97;;;21.41;61.08
40946;BME280;55635;50.264;11.918;2023-07-31T12:38:44;95180.75;;;21.27;61.68
40946;BME280;55635;50.264;11.918;2023-07-31T12:41:26;95184.34;;;21.42;62.39
40946;BME280;55635;50.264;11.918;2023-07-31T12:44:07;95202.94;;;21.39;61.72
40946;BME280;55635;50.264;11.918;2023-07-31T12:46:48;95183.59;;;21.62;60.66
40946;BME280;55635;50.264;11.918;2023-07-31T12:49:29;95191.03;;;22.02;58.53
40946;BME280;55635;50.264;11.918;2023-07-31T12:52:10;95169.75;;;22.31;59.19
40946;BME280;55635;50.264;11.918;2023-07-31T12:54:51;95168.41;;;22.53;57.71
40946;BME280;55635;50.264;11.918;2023-07-31T12:57:31;95169.50;;;22.47;57.73
40946;BME280;55635;50.264;11.918;2023-07-31T13:00:13;95186.91;;;21.79;56.93
40946;BME280;55635;50.264;11.918;2023-07-31T13:02:54;95178.28;;;21.82;59.66
40946;BME280;55635;50.264;11.918;2023-07-31T13:05:35;95178.59;;;21.96;59.69
40946;BME280;55635;50.264;11.918;2023-07-31T13:08:16;95179.59;;;21.75;60.99
40946;BME280;55635;50.264;11.918;2023-07-31T13:10:58;95180.53;;;22.15;60.81
40946;BME280;55635;50.264;11.918;2023-07-31T13:13:39;95175.81;;;21.70;61.84
40946;BME280;55635;50.264;11.918;2023-07-31T13:16:19;95159.00;;;21.48;61.36
40946;BME280;55635;50.264;11.918;2023-07-31T13:19:01;95168.38;;;21.31;62.99
40946;BME280;55635;50.264;11.918;2023-07-31T13:21:42;95171.72;;;21.63;62.15
40946;BME280;55635;50.264;11.918;2023-07-31T13:24:22;95161.56;;;21.18;64.57
40946;BME280;55635;50.264;11.918;2023-07-31T13:27:03;95154.91;;;21.41;63.08
40946;BME280;55635;50.264;11.918;2023-07-31T13:29:45;95148.91;;;21.91;62.53
40946;BME280;55635;50.264;11.918;2023-07-31T13:32:26;95139.50;;;22.44;61.09
40946;BME280;55635;50.264;11.918;2023-07-31T13:35:08;95145.44;;;22.26;60.29
40946;BME280;55635;50.264;11.918;2023-07-31T13:37:49;95139.50;;;22.13;60.73
40946;BME280;55635;50.264;11.918;2023-07-31T13:40:30;95130.03;;;22.36;60.23
40946;BME280;55635;50.264;11.918;2023-07-31T13:43:11;95149.03;;;21.59;60.66
40946;BME280;55635;50.264;11.918;2023-07-31T13:45:52;95128.56;;;21.58;61.92
40946;BME280;55635;50.264;11.918;2023-07-31T13:48:35;95119.06;;;21.50;62.50
40946;BME280;55635;50.264;11.918;2023-07-31T13:51:16;95113.56;;;22.28;60.57
40946;BME280;55635;50.264;11.918;2023-07-31T13:53:57;95113.00;;;22.66;59.45
40946;BME280;55635;50.264;11.918;2023-07-31T13:56:38;95106.75;;;22.91;58.10
40946;BME280;55635;50.264;11.918;2023-07-31T13:59:19;95103.53;;;22.08;58.06
40946;BME280;55635;50.264;11.918;2023-07-31T14:02:02;95096.78;;;21.90;59.87
40946;BME280;55635;50.264;11.918;2023-07-31T14:04:43;95106.00;;;22.19;60.36
40946;BME280;55635;50.264;11.918;2023-07-31T14:07:24;95100.59;;;22.24;60.47
40946;BME280;55635;50.264;11.918;2023-07-31T14:10:06;95110.31;;;22.36;58.25
40946;BME280;55635;50.264;11.918;2023-07-31T14:12:47;95103.47;;;23.04;57.17